sensor_id;sensor_type;location;lat;lon;timestamp;pressure;altitude;pressure_sealevel;temperature;humidity
79612;BME280;69094;48.154;11.536;2023-09-19T00:00:59;95220.34;;;16.54;69.70
79612;BME280;69094;48.154;11.536;2023-09-19T00:03:24;95233.41;;;16.64;69.05
79612;BME280;69094;48.154;11.536;2023-09-19T00:05:53;95222.84;;;16.66;69.13
79612;BME280;69094;48.154;11.536;2023-09-19T00:08:20;95223.25;;;16.65;68.95
79612;BME280;69094;48.154;11.536;2023-09-19T00:10:50;95219.16;;;16.82;68.25
79612;BME280;69094;48.154;11.536;2023-09-19T00:13:15;95219.06;;;16.74;67.87
79612;BME280;69094;48.154;11.536;2023-09-19T00:15:43;95220.28;;;16.77;68.02
79612;BME280;69094;48.154;11.536;2023-09-19T00:18:12;95224.91;;;16.73;67.87
79612;BME280;69094;48.154;11.536;2023-09-19T00:20:38;95229.22;;;16.74;68.01
79612;BME280;69094;48.154;11.536;2023-09-19T00:23:04;95227.66;;;16.73;67.84
79612;BME280;69094;48.154;11.536;2023-09-19T00:25:35;95228.44;;;16.73;67.71
79612;BME280;69094;48.154;11.536;2023-09-19T00:28:01;95229.66;;;16.76;67.37
79612;BME280;69094;48.154;11.536;2023-09-19T00:30:26;95231.34;;;16.84;66.93
79612;BME280;69094;48.154;11.536;2023-09-19T00:32:52;95234.25;;;16.95;67.12
79612;BME280;69094;48.154;11.536;2023-09-19T00:35:20;95237.34;;;16.90;67.10
79612;BME280;69094;48.154;11.536;2023-09-19T00:37:50;95237.38;;;16.93;67.01
79612;BME280;69094;48.154;11.536;2023-09-19T00:40:15;95238.13;;;16.90;67.36
79612;BME280;69094;48.154;11.536;2023-09-19T00:42:48;95240.03;;;16.86;67.83
79612;BME280;69094;48.154;11.536;2023-09-19T00:45:15;95242.31;;;16.81;67.88
79612;BME280;69094;48.154;11.536;2023-09-19T00:47:43;95243.09;;;16.81;67.96
79612;BME280;69094;48.154;11.536;2023-09-19T00:50:09;95243.03;;;16.77;68.59
79612;BME280;69094;48.154;11.536;2023-09-19T00:52:37;95249.53;;;16.66;69.42
79612;BME280;69094;48.154;11.536;2023-09-19T00:55:05;95244.09;;;16.69;69.29
79612;BME280;69094;48.154;11.536;2023-09-19T00:57:31;95254.69;;;16.67;69.54
79612;BME280;69094;48.154;11.536;2023-09-19T00:59:58;95260.97;;;16.68;70.03
79612;BME280;69094;48.154;11.536;2023-09-19T01:02:25;95262.38;;;16.58;69.89
79612;BME280;69094;48.154;11.536;2023-09-19T01:04:52;95267.78;;;16.51;70.26
79612;BME280;69094;48.154;11.536;2023-09-19T01:07:18;95257.53;;;16.48;69.92
79612;BME280;69094;48.154;11.536;2023-09-19T01:09:44;95265.78;;;16.48;70.28
79612;BME280;69094;48.154;11.536;2023-09-19T01:12:12;95263.03;;;16.48;70.18
79612;BME280;69094;48.154;11.536;2023-09-19T01:14:54;95272.84;;;16.49;70.44
79612;BME280;69094;48.154;11.536;2023-09-19T01:17:30;95267.78;;;16.51;70.29
79612;BME280;69094;48.154;11.536;2023-09-19T01:20:10;95278.09;;;16.57;70.03
79612;BME280;69094;48.154;11.536;2023-09-19T01:28:45;95283.72;;;16.42;70.85
79612;BME280;69094;48.154;11.536;2023-09-19T01:31:21;95290.75;;;16.39;71.08
79612;BME280;69094;48.154;11.536;2023-09-19T01:36:28;95286.16;;;16.47;70.78
79612;BME280;69094;48.154;11.536;2023-09-19T01:38:55;95293.59;;;16.46;70.59
79612;BME280;69094;48.154;11.536;2023-09-19T01:41:28;95289.63;;;16.44;70.71
79612;BME280;69094;48.154;11.536;2023-09-19T01:43:56;95287.78;;;16.51;69.76
79612;BME280;69094;48.154;11.536;2023-09-19T01:46:25;95292.06;;;16.49;70.02
79612;BME280;69094;48.154;11.536;2023-09-19T01:49:15;95306.91;;;16.44;70.58
79612;BME280;69094;48.154;11.536;2023-09-19T01:51:56;95303.00;;;16.45;70.29
79612;BME280;69094;48.154;11.536;2023-09-19T01:54:34;95310.75;;;16.40;70.34
79612;BME280;69094;48.154;11.536;2023-09-19T01:57:09;95300.19;;;16.42;70.25
79612;BME280;69094;48.154;11.536;2023-09-19T01:59:45;95305.00;;;16.48;70.13
79612;BME280;69094;48.154;11.536;2023-09-19T02:02:12;95297.75;;;16.60;69.60
79612;BME280;69094;48.154;11.536;2023-09-19T02:04:37;95297.25;;;16.54;69.50
79612;BME280;69094;48.154;11.536;2023-09-19T02:07:03;95297.25;;;16.54;69.38
79612;BME280;69094;48.154;11.536;2023-09-19T02:09:31;95305.13;;;16.55;69.41
79612;BME280;69094;48.154;11.536;2023-09-19T02:11:56;95307.88;;;16.55;69.32
79612;BME280;69094;48.154;11.536;2023-09-19T02:14:22;95304.75;;;16.57;69.06
79612;BME280;69094;48.154;11.536;2023-09-19T02:16:47;95304.34;;;16.55;69.18
79612;BME280;69094;48.154;11.536;2023-09-19T02:19:15;95298.84;;;16.55;69.51
79612;BME280;69094;48.154;11.536;2023-09-19T02:21:41;95296.78;;;16.48;69.96
79612;BME280;69094;48.154;11.536;2023-09-19T02:24:06;95298.75;;;16.48;69.77
79612;BME280;69094;48.154;11.536;2023-09-19T02:26:33;95301.00;;;16.42;70.02
79612;BME280;69094;48.154;11.536;2023-09-19T02:29:02;95301.72;;;16.39;70.20
79612;BME280;69094;48.154;11.536;2023-09-19T02:31:30;95300.47;;;16.33;70.39
79612;BME280;69094;48.154;11.536;2023-09-19T02:33:56;95303.69;;;16.39;70.03
79612;BME280;69094;48.154;11.536;2023-09-19T02:36:21;95304.03;;;16.37;70.08
79612;BME280;69094;48.154;11.536;2023-09-19T02:38:48;95305.53;;;16.31;70.43
79612;BME280;69094;48.154;11.536;2023-09-19T02:41:14;95302.31;;;16.25;70.35
79612;BME280;69094;48.154;11.536;2023-09-19T02:43:39;95313.78;;;16.31;70.15
79612;BME280;69094;48.154;11.536;2023-09-19T02:46:05;95308.28;;;16.31;70.09
79612;BME280;69094;48.154;11.536;2023-09-19T02:48:30;95315.28;;;16.28;70.52
79612;BME280;69094;48.154;11.536;2023-09-19T02:50:57;95306.69;;;16.30;70.02
79612;BME280;69094;48.154;11.536;2023-09-19T02:53:23;95308.22;;;16.27;70.17
79612;BME280;69094;48.154;11.536;2023-09-19T02:55:49;95314.06;;;16.26;70.60
79612;BME280;69094;48.154;11.536;2023-09-19T02:58:15;95306.06;;;16.17;70.75
79612;BME280;69094;48.154;11.536;2023-09-19T03:00:41;95318.19;;;16.12;71.14
79612;BME280;69094;48.154;11.536;2023-09-19T03:03:08;95314.44;;;16.24;70.88
79612;BME280;69094;48.154;11.536;2023-09-19T03:05:34;95308.81;;;16.17;70.89
79612;BME280;69094;48.154;11.536;2023-09-19T03:08:00;95309.34;;;16.23;71.02
79612;BME280;69094;48.154;11.536;2023-09-19T03:10:26;95311.09;;;16.11;70.89
79612;BME280;69094;48.154;11.536;2023-09-19T03:12:53;95307.25;;;16.16;70.84
79612;BME280;69094;48.154;11.536;2023-09-19T03:15:19;95302.84;;;16.11;70.69
79612;BME280;69094;48.154;11.536;2023-09-19T03:17:46;95304.03;;;16.10;70.65
79612;BME280;69094;48.154;11.536;2023-09-19T03:20:13;95307.56;;;16.11;70.43
79612;BME280;69094;48.154;11.536;2023-09-19T03:22:45;95305.56;;;16.08;70.86
79612;BME280;69094;48.154;11.536;2023-09-19T03:25:11;95310.31;;;16.11;70.58
79612;BME280;69094;48.154;11.536;2023-09-19T03:27:38;95320.94;;;16.12;70.61
79612;BME280;69094;48.154;11.536;2023-09-19T03:30:04;95303.47;;;16.01;70.62
79612;BME280;69094;48.154;11.536;2023-09-19T03:32:36;95312.19;;;16.07;70.42
79612;BME280;69094;48.154;11.536;2023-09-19T03:35:03;95306.25;;;16.05;70.43
79612;BME280;69094;48.154;11.536;2023-09-19T03:37:31;95311.41;;;16.06;70.21
79612;BME280;69094;48.154;11.536;2023-09-19T03:39:57;95313.72;;;16.04;70.37
79612;BME280;69094;48.154;11.536;2023-09-19T03:42:22;95321.25;;;16.07;70.16
79612;BME280;69094;48.154;11.536;2023-09-19T03:44:51;95316.16;;;16.09;70.14
79612;BME280;69094;48.154;11.536;2023-09-19T03:47:17;95320.84;;;16.09;70.41
79612;BME280;69094;48.154;11.536;2023-09-19T03:49:44;95310.66;;;16.09;70.48
79612;BME280;69094;48.154;11.536;2023-09-19T03:52:09;95318.41;;;16.04;70.47
79612;BME280;69094;48.154;11.536;2023-09-19T03:54:34;95318.84;;;16.06;70.39
79612;BME280;69094;48.154;11.536;2023-09-19T03:57:00;95321.59;;;16.06;70.69
79612;BME280;69094;48.154;11.536;2023-09-19T03:59:25;95325.91;;;16.07;70.32
79612;BME280;69094;48.154;11.536;2023-09-19T04:01:51;95325.47;;;16.05;70.83
79612;BME280;69094;48.154;11.536;2023-09-19T04:04:21;95336.84;;;16.03;70.62
79612;BME280;69094;48.154;11.536;2023-09-19T04:06:46;95332.22;;;16.07;70.45
79612;BME280;69094;48.154;11.536;2023-09-19T04:09:11;95334.16;;;16.07;70.60
79612;BME280;69094;48.154;11.536;2023-09-19T04:11:36;95333.72;;;16.05;70.74
79612;BME280;69094;48.154;11.536;2023-09-19T04:14:03;95334.09;;;16.03;70.84
79612;BME280;69094;48.154;11.536;2023-09-19T04:16:29;95332.88;;;16.01;70.81
79612;BME280;69094;48.154;11.536;2023-09-19T04:18:55;95339.16;;;16.01;70.88
79612;BME280;69094;48.154;11.536;2023-09-19T04:21:20;95336.06;;;16.03;70.68
79612;BME280;69094;48.154;11.536;2023-09-19T04:23:45;95347.88;;;16.07;70.90
79612;BME280;69094;48.154;11.536;2023-09-19T04:26:11;95336.84;;;16.03;70.61
79612;BME280;69094;48.154;11.536;2023-09-19T04:28:37;95355.19;;;15.99;70.88
79612;BME280;69094;48.154;11.536;2023-09-19T04:31:03;95352.09;;;16.01;70.78
79612;BME280;69094;48.154;11.536;2023-09-19T04:33:29;95356.41;;;16.02;70.84
79612;BME280;69094;48.154;11.536;2023-09-19T04:35:54;95359.28;;;16.09;70.46
79612;BME280;69094;48.154;11.536;2023-09-19T04:38:20;95352.53;;;16.03;70.53
79612;BME280;69094;48.154;11.536;2023-09-19T04:40:46;95367.91;;;16.07;70.48
79612;BME280;69094;48.154;11.536;2023-09-19T04:43:12;95365.56;;;16.09;70.64
79612;BME280;69094;48.154;11.536;2023-09-19T04:45:38;95368.81;;;16.15;70.15
79612;BME280;69094;48.154;11.536;2023-09-19T04:48:04;95368.75;;;16.11;70.06
79612;BME280;69094;48.154;11.536;2023-09-19T04:50:31;95366.38;;;16.10;70.13
79612;BME280;69094;48.154;11.536;2023-09-19T04:52:57;95372.69;;;16.14;70.17
79612;BME280;69094;48.154;11.536;2023-09-19T04:55:23;95377.28;;;16.06;70.10
79612;BME280;69094;48.154;11.536;2023-09-19T04:57:50;95372.53;;;16.03;70.37
79612;BME280;69094;48.154;11.536;2023-09-19T05:00:20;95377.22;;;16.03;69.94
79612;BME280;69094;48.154;11.536;2023-09-19T05:02:54;95389.34;;;16.02;70.49
79612;BME280;69094;48.154;11.536;2023-09-19T05:05:21;95398.38;;;16.02;70.54
79612;BME280;69094;48.154;11.536;2023-09-19T05:07:47;95396.84;;;16.05;70.30
79612;BME280;69094;48.154;11.536;2023-09-19T05:10:14;95396.50;;;16.06;70.21
79612;BME280;69094;48.154;11.536;2023-09-19T05:12:40;95395.63;;;16.02;70.16
79612;BME280;69094;48.154;11.536;2023-09-19T05:15:06;95408.13;;;16.00;70.24
79612;BME280;69094;48.154;11.536;2023-09-19T05:17:32;95410.50;;;16.01;70.14
79612;BME280;69094;48.154;11.536;2023-09-19T05:19:59;95414.84;;;16.02;69.86
79612;BME280;69094;48.154;11.536;2023-09-19T05:22:28;95422.34;;;16.05;70.19
79612;BME280;69094;48.154;11.536;2023-09-19T05:24:54;95422.13;;;16.14;69.79
79612;BME280;69094;48.154;11.536;2023-09-19T05:27:19;95420.16;;;16.14;69.73
79612;BME280;69094;48.154;11.536;2023-09-19T05:29:46;95419.94;;;16.23;69.10
79612;BME280;69094;48.154;11.536;2023-09-19T05:32:12;95428.03;;;16.16;69.56
79612;BME280;69094;48.154;11.536;2023-09-19T05:34:38;95424.41;;;16.12;69.66
79612;BME280;69094;48.154;11.536;2023-09-19T05:37:04;95432.75;;;16.15;69.83
79612;BME280;69094;48.154;11.536;2023-09-19T05:39:33;95431.56;;;16.17;69.45
79612;BME280;69094;48.154;11.536;2023-09-19T05:41:59;95426.38;;;16.11;69.22
79612;BME280;69094;48.154;11.536;2023-09-19T05:44:25;95434.56;;;16.08;69.64
79612;BME280;69094;48.154;11.536;2023-09-19T05:46:51;95432.91;;;16.03;69.71
79612;BME280;69094;48.154;11.536;2023-09-19T05:49:17;95439.53;;;16.02;69.58
79612;BME280;69094;48.154;11.536;2023-09-19T05:51:43;95436.72;;;15.99;70.12
79612;BME280;69094;48.154;11.536;2023-09-19T05:54:08;95444.63;;;16.00;69.79
79612;BME280;69094;48.154;11.536;2023-09-19T05:56:34;95443.59;;;16.08;69.62
79612;BME280;69094;48.154;11.536;2023-09-19T05:58:59;95444.06;;;16.14;69.40
79612;BME280;69094;48.154;11.536;2023-09-19T06:01:25;95447.75;;;16.22;68.75
79612;BME280;69094;48.154;11.536;2023-09-19T06:03:50;95450.59;;;16.48;68.25
79612;BME280;69094;48.154;11.536;2023-09-19T06:06:16;95445.09;;;16.94;66.73
79612;BME280;69094;48.154;11.536;2023-09-19T06:08:41;95461.91;;;17.16;65.77
79612;BME280;69094;48.154;11.536;2023-09-19T06:11:09;95459.59;;;17.44;65.04
79612;BME280;69094;48.154;11.536;2023-09-19T06:13:35;95455.06;;;17.29;65.35
79612;BME280;69094;48.154;11.536;2023-09-19T06:16:01;95452.78;;;17.08;66.04
79612;BME280;69094;48.154;11.536;2023-09-19T06:18:31;95452.19;;;16.95;66.52
79612;BME280;69094;48.154;11.536;2023-09-19T06:20:59;95456.00;;;16.87;66.79
79612;BME280;69094;48.154;11.536;2023-09-19T06:23:25;95456.03;;;16.91;66.94
79612;BME280;69094;48.154;11.536;2023-09-19T06:25:52;95454.38;;;17.09;65.79
79612;BME280;69094;48.154;11.536;2023-09-19T06:28:18;95459.94;;;17.16;65.76
79612;BME280;69094;48.154;11.536;2023-09-19T06:30:49;95461.13;;;17.15;65.82
79612;BME280;69094;48.154;11.536;2023-09-19T06:33:14;95459.00;;;17.05;66.22
79612;BME280;69094;48.154;11.536;2023-09-19T06:35:40;95463.56;;;17.20;65.62
79612;BME280;69094;48.154;11.536;2023-09-19T06:38:07;95464.84;;;17.27;65.49
79612;BME280;69094;48.154;11.536;2023-09-19T06:40:34;95467.06;;;17.17;65.69
79612;BME280;69094;48.154;11.536;2023-09-19T06:43:00;95469.50;;;17.22;65.20
79612;BME280;69094;48.154;11.536;2023-09-19T06:45:27;95470.94;;;17.16;65.55
79612;BME280;69094;48.154;11.536;2023-09-19T06:47:52;95468.63;;;17.18;65.58
79612;BME280;69094;48.154;11.536;2023-09-19T06:50:22;95475.56;;;17.35;65.20
79612;BME280;69094;48.154;11.536;2023-09-19T06:52:50;95475.72;;;17.19;65.84
79612;BME280;69094;48.154;11.536;2023-09-19T06:55:17;95478.34;;;17.39;65.42
79612;BME280;69094;48.154;11.536;2023-09-19T06:57:47;95482.78;;;18.38;61.97
79612;BME280;69094;48.154;11.536;2023-09-19T07:00:14;95477.34;;;19.34;59.18
79612;BME280;69094;48.154;11.536;2023-09-19T07:05:31;95496.34;;;18.91;59.78
79612;BME280;69094;48.154;11.536;2023-09-19T07:07:57;95492.97;;;18.71;60.68
79612;BME280;69094;48.154;11.536;2023-09-19T07:10:29;95491.88;;;18.08;62.48
79612;BME280;69094;48.154;11.536;2023-09-19T07:12:59;95496.91;;;17.72;63.65
79612;BME280;69094;48.154;11.536;2023-09-19T07:15:29;95500.97;;;17.52;64.50
79612;BME280;69094;48.154;11.536;2023-09-19T07:17:58;95504.00;;;17.73;63.87
79612;BME280;69094;48.154;11.536;2023-09-19T07:20:26;95509.50;;;17.73;64.29
79612;BME280;69094;48.154;11.536;2023-09-19T07:22:52;95513.81;;;18.01;63.27
79612;BME280;69094;48.154;11.536;2023-09-19T07:25:20;95510.66;;;18.70;61.14
79612;BME280;69094;48.154;11.536;2023-09-19T07:27:45;95509.81;;;18.62;61.15
79612;BME280;69094;48.154;11.536;2023-09-19T07:30:11;95504.28;;;18.25;62.08
79612;BME280;69094;48.154;11.536;2023-09-19T07:32:37;95504.78;;;18.34;61.92
79612;BME280;69094;48.154;11.536;2023-09-19T07:35:04;95517.34;;;19.10;59.65
79612;BME280;69094;48.154;11.536;2023-09-19T07:40:06;95500.75;;;19.54;58.64
79612;BME280;69094;48.154;11.536;2023-09-19T07:42:33;95507.34;;;19.35;59.38
79612;BME280;69094;48.154;11.536;2023-09-19T07:45:01;95506.41;;;19.72;58.13
79612;BME280;69094;48.154;11.536;2023-09-19T07:47:26;95511.25;;;19.31;59.79
79612;BME280;69094;48.154;11.536;2023-09-19T07:49:52;95506.88;;;19.30;59.77
79612;BME280;69094;48.154;11.536;2023-09-19T07:52:18;95510.03;;;19.32;59.91
79612;BME280;69094;48.154;11.536;2023-09-19T07:54:44;95509.13;;;19.65;58.63
79612;BME280;69094;48.154;11.536;2023-09-19T07:57:10;95519.66;;;20.15;57.36
79612;BME280;69094;48.154;11.536;2023-09-19T07:59:37;95521.56;;;20.04;57.34
79612;BME280;69094;48.154;11.536;2023-09-19T08:02:04;95515.81;;;20.52;55.54
79612;BME280;69094;48.154;11.536;2023-09-19T08:04:30;95520.28;;;20.89;55.17
79612;BME280;69094;48.154;11.536;2023-09-19T08:06:58;95509.97;;;20.64;55.72
79612;BME280;69094;48.154;11.536;2023-09-19T08:09:24;95521.94;;;20.02;57.56
79612;BME280;69094;48.154;11.536;2023-09-19T08:11:49;95514.59;;;19.62;58.79
79612;BME280;69094;48.154;11.536;2023-09-19T08:14:15;95519.66;;;19.52;58.68
79612;BME280;69094;48.154;11.536;2023-09-19T08:16:41;95521.22;;;19.50;58.82
79612;BME280;69094;48.154;11.536;2023-09-19T08:19:09;95534.91;;;19.35;59.36
79612;BME280;69094;48.154;11.536;2023-09-19T08:21:35;95530.44;;;19.20;60.30
79612;BME280;69094;48.154;11.536;2023-09-19T08:24:01;95520.66;;;19.30;59.19
79612;BME280;69094;48.154;11.536;2023-09-19T08:26:29;95528.25;;;19.99;57.93
79612;BME280;69094;48.154;11.536;2023-09-19T08:28:56;95533.38;;;21.60;52.70
79612;BME280;69094;48.154;11.536;2023-09-19T08:31:21;95526.66;;;21.54;52.40
79612;BME280;69094;48.154;11.536;2023-09-19T08:33:47;95525.25;;;22.41;50.06
79612;BME280;69094;48.154;11.536;2023-09-19T08:36:14;95527.25;;;22.40;50.63
79612;BME280;69094;48.154;11.536;2023-09-19T08:38:40;95530.09;;;23.07;48.32
79612;BME280;69094;48.154;11.536;2023-09-19T08:41:07;95525.63;;;23.69;47.08
79612;BME280;69094;48.154;11.536;2023-09-19T08:43:33;95522.03;;;24.10;44.84
79612;BME280;69094;48.154;11.536;2023-09-19T08:48:31;95524.25;;;23.42;46.03
79612;BME280;69094;48.154;11.536;2023-09-19T08:51:06;95516.28;;;23.48;45.41
79612;BME280;69094;48.154;11.536;2023-09-19T08:54:07;95524.78;;;23.27;46.41
79612;BME280;69094;48.154;11.536;2023-09-19T08:56:35;95513.59;;;24.20;44.23
79612;BME280;69094;48.154;11.536;2023-09-19T08:59:05;95527.28;;;24.04;44.89
79612;BME280;69094;48.154;11.536;2023-09-19T09:01:35;95524.81;;;22.53;47.99
79612;BME280;69094;48.154;11.536;2023-09-19T09:04:02;95530.88;;;22.26;49.81
79612;BME280;69094;48.154;11.536;2023-09-19T09:06:29;95529.81;;;21.66;50.95
79612;BME280;69094;48.154;11.536;2023-09-19T09:08:54;95534.53;;;21.16;52.28
79612;BME280;69094;48.154;11.536;2023-09-19T09:11:20;95530.56;;;20.84;51.90
79612;BME280;69094;48.154;11.536;2023-09-19T09:13:47;95539.22;;;22.12;49.06
79612;BME280;69094;48.154;11.536;2023-09-19T09:16:14;95542.19;;;22.64;46.62
79612;BME280;69094;48.154;11.536;2023-09-19T09:18:44;95539.50;;;22.53;46.96
79612;BME280;69094;48.154;11.536;2023-09-19T09:21:10;95538.94;;;21.45;49.23
79612;BME280;69094;48.154;11.536;2023-09-19T09:23:36;95549.19;;;21.34;49.24
79612;BME280;69094;48.154;11.536;2023-09-19T09:26:01;95541.19;;;22.11;47.21
79612;BME280;69094;48.154;11.536;2023-09-19T09:28:33;95536.31;;;23.74;43.89
79612;BME280;69094;48.154;11.536;2023-09-19T09:31:00;95535.44;;;23.35;43.92
79612;BME280;69094;48.154;11.536;2023-09-19T09:33:28;95535.75;;;23.44;44.53
79612;BME280;69094;48.154;11.536;2023-09-19T09:35:57;95535.88;;;24.55;41.92
79612;BME280;69094;48.154;11.536;2023-09-19T09:38:42;95529.53;;;24.16;42.52
79612;BME280;69094;48.154;11.536;2023-09-19T09:41:09;95535.25;;;25.75;39.69
79612;BME280;69094;48.154;11.536;2023-09-19T09:43:36;95537.47;;;24.14;41.90
79612;BME280;69094;48.154;11.536;2023-09-19T09:46:12;95528.97;;;24.93;40.07
79612;BME280;69094;48.154;11.536;2023-09-19T09:49:03;95528.81;;;25.04;40.31
79612;BME280;69094;48.154;11.536;2023-09-19T09:51:51;95536.47;;;24.97;40.53
79612;BME280;69094;48.154;11.536;2023-09-19T09:54:25;95536.75;;;25.33;39.36
79612;BME280;69094;48.154;11.536;2023-09-19T09:57:01;95540.38;;;26.44;37.35
79612;BME280;69094;48.154;11.536;2023-09-19T09:59:45;95539.50;;;26.07;37.80
79612;BME280;69094;48.154;11.536;2023-09-19T10:02:35;95534.69;;;24.14;41.02
79612;BME280;69094;48.154;11.536;2023-09-19T10:05:20;95546.94;;;23.30;43.17
79612;BME280;69094;48.154;11.536;2023-09-19T10:07:47;95547.28;;;22.73;45.19
79612;BME280;69094;48.154;11.536;2023-09-19T10:10:30;95545.06;;;22.43;45.99
79612;BME280;69094;48.154;11.536;2023-09-19T10:13:05;95539.56;;;23.61;42.83
79612;BME280;69094;48.154;11.536;2023-09-19T10:15:33;95546.69;;;23.62;42.78
79612;BME280;69094;48.154;11.536;2023-09-19T10:18:01;95542.41;;;25.29;40.03
79612;BME280;69094;48.154;11.536;2023-09-19T10:20:28;95550.25;;;25.85;37.54
79612;BME280;69094;48.154;11.536;2023-09-19T10:23:09;95550.56;;;26.54;36.33
79612;BME280;69094;48.154;11.536;2023-09-19T10:25:40;95547.00;;;26.54;36.68
79612;BME280;69094;48.154;11.536;2023-09-19T10:28:10;95542.91;;;26.78;36.72
79612;BME280;69094;48.154;11.536;2023-09-19T10:30:44;95547.59;;;26.21;37.15
79612;BME280;69094;48.154;11.536;2023-09-19T10:33:11;95536.91;;;24.95;39.07
79612;BME280;69094;48.154;11.536;2023-09-19T10:35:39;95536.75;;;25.33;38.63
79612;BME280;69094;48.154;11.536;2023-09-19T10:38:09;95545.59;;;24.36;40.42
79612;BME280;69094;48.154;11.536;2023-09-19T10:40:36;95542.03;;;23.52;43.21
79612;BME280;69094;48.154;11.536;2023-09-19T10:43:05;95553.94;;;23.00;44.43
79612;BME280;69094;48.154;11.536;2023-09-19T10:45:32;95551.91;;;21.95;46.33
79612;BME280;69094;48.154;11.536;2023-09-19T10:48:02;95550.25;;;23.14;43.65
79612;BME280;69094;48.154;11.536;2023-09-19T10:50:35;95560.97;;;24.44;40.74
79612;BME280;69094;48.154;11.536;2023-09-19T10:53:04;95555.28;;;25.20;39.08
79612;BME280;69094;48.154;11.536;2023-09-19T10:55:33;95552.13;;;24.56;40.47
79612;BME280;69094;48.154;11.536;2023-09-19T10:58:01;95549.75;;;25.90;37.20
79612;BME280;69094;48.154;11.536;2023-09-19T11:00:30;95556.22;;;26.07;37.34
79612;BME280;69094;48.154;11.536;2023-09-19T11:05:38;95553.38;;;26.51;35.48
79612;BME280;69094;48.154;11.536;2023-09-19T11:08:07;95550.31;;;26.45;35.42
79612;BME280;69094;48.154;11.536;2023-09-19T11:10:51;95545.84;;;26.71;36.18
79612;BME280;69094;48.154;11.536;2023-09-19T11:13:29;95559.19;;;26.80;35.45
79612;BME280;69094;48.154;11.536;2023-09-19T11:16:04;95545.25;;;26.60;34.75
79612;BME280;69094;48.154;11.536;2023-09-19T11:26:51;95546.53;;;26.75;33.25
79612;BME280;69094;48.154;11.536;2023-09-19T11:29:29;95534.56;;;26.15;33.68
79612;BME280;69094;48.154;11.536;2023-09-19T11:31:55;95542.03;;;26.41;33.71
79612;BME280;69094;48.154;11.536;2023-09-19T11:39:42;95532.72;;;24.49;36.38
79612;BME280;69094;48.154;11.536;2023-09-19T11:42:48;95541.09;;;23.73;38.16
79612;BME280;69094;48.154;11.536;2023-09-19T11:48:13;95541.31;;;22.82;39.98
79612;BME280;69094;48.154;11.536;2023-09-19T11:50:42;95531.69;;;22.20;41.57
79612;BME280;69094;48.154;11.536;2023-09-19T11:53:11;95537.97;;;22.34;41.78
79612;BME280;69094;48.154;11.536;2023-09-19T11:55:38;95533.00;;;22.82;41.13
79612;BME280;69094;48.154;11.536;2023-09-19T11:58:06;95539.38;;;25.17;36.47
79612;BME280;69094;48.154;11.536;2023-09-19T12:00:34;95539.63;;;26.00;34.83
79612;BME280;69094;48.154;11.536;2023-09-19T12:03:05;95539.31;;;26.78;33.17
79612;BME280;69094;48.154;11.536;2023-09-19T12:05:33;95532.16;;;27.13;32.66
79612;BME280;69094;48.154;11.536;2023-09-19T12:08:00;95534.00;;;27.20;31.64
79612;BME280;69094;48.154;11.536;2023-09-19T12:10:27;95531.94;;;25.84;33.74
79612;BME280;69094;48.154;11.536;2023-09-19T12:12:52;95533.31;;;25.72;34.84
79612;BME280;69094;48.154;11.536;2023-09-19T12:15:28;95524.56;;;24.96;35.69
79612;BME280;69094;48.154;11.536;2023-09-19T12:17:59;95537.69;;;24.96;35.86
79612;BME280;69094;48.154;11.536;2023-09-19T12:20:25;95523.47;;;25.44;34.79
79612;BME280;69094;48.154;11.536;2023-09-19T12:22:50;95528.97;;;25.95;33.74
79612;BME280;69094;48.154;11.536;2023-09-19T12:25:16;95529.50;;;25.12;35.20
79612;BME280;69094;48.154;11.536;2023-09-19T12:27:48;95529.06;;;26.11;34.06
79612;BME280;69094;48.154;11.536;2023-09-19T12:30:27;95529.59;;;27.02;32.06
79612;BME280;69094;48.154;11.536;2023-09-19T12:32:53;95526.13;;;26.18;32.92
79612;BME280;69094;48.154;11.536;2023-09-19T12:35:29;95517.03;;;24.93;35.40
79612;BME280;69094;48.154;11.536;2023-09-19T12:37:55;95524.16;;;23.98;38.21
79612;BME280;69094;48.154;11.536;2023-09-19T12:40:22;95524.81;;;23.75;38.96
79612;BME280;69094;48.154;11.536;2023-09-19T12:42:53;95521.59;;;24.49;37.76
79612;BME280;69094;48.154;11.536;2023-09-19T12:45:20;95508.13;;;24.44;37.75
79612;BME280;69094;48.154;11.536;2023-09-19T12:48:19;95507.69;;;25.81;35.59
79612;BME280;69094;48.154;11.536;2023-09-19T12:51:12;95511.50;;;26.54;33.38
79612;BME280;69094;48.154;11.536;2023-09-19T12:53:44;95506.75;;;26.71;33.00
79612;BME280;69094;48.154;11.536;2023-09-19T12:56:16;95514.44;;;24.82;36.22
79612;BME280;69094;48.154;11.536;2023-09-19T12:58:52;95518.66;;;24.29;37.87
79612;BME280;69094;48.154;11.536;2023-09-19T13:01:21;95526.75;;;23.75;41.38
79612;BME280;69094;48.154;11.536;2023-09-19T13:04:11;95523.63;;;25.33;39.26
79612;BME280;69094;48.154;11.536;2023-09-19T13:06:50;95525.31;;;25.51;39.41
79612;BME280;69094;48.154;11.536;2023-09-19T13:09:21;95523.53;;;25.64;39.42
79612;BME280;69094;48.154;11.536;2023-09-19T13:11:47;95528.78;;;26.66;37.25
79612;BME280;69094;48.154;11.536;2023-09-19T13:14:19;95521.78;;;27.14;35.44
79612;BME280;69094;48.154;11.536;2023-09-19T13:17:05;95523.97;;;27.22;35.65
79612;BME280;69094;48.154;11.536;2023-09-19T13:19:51;95521.28;;;27.52;35.54
79612;BME280;69094;48.154;11.536;2023-09-19T13:22:44;95506.97;;;27.33;34.97
79612;BME280;69094;48.154;11.536;2023-09-19T13:25:19;95510.72;;;27.59;35.27
79612;BME280;69094;48.154;11.536;2023-09-19T13:27:47;95511.25;;;27.70;34.29
79612;BME280;69094;48.154;11.536;2023-09-19T13:30:17;95508.38;;;27.58;35.15
79612;BME280;69094;48.154;11.536;2023-09-19T13:32:43;95502.13;;;27.01;36.54
79612;BME280;69094;48.154;11.536;2023-09-19T13:35:09;95491.81;;;26.41;37.68